Terminal Aerodrome Forecast
Issued by NWS

Home | Current Version | Previous Version | Text Only | Print | Product List | Glossary On
Versions: 1 2 3 4 5 6 7 8 9 10 11 12 13 14 15
000
FTUS46 KSEW 292335
TAFPAE
TAF
KPAE 292335Z 3000/3024 VRB04KT P6SM FEW250
     FM300200 35004KT P6SM FEW250
     FM301300 24004KT P6SM OVC010
     FM301800 22004KT P6SM OVC025=

USA.gov is the U.S. government's official web portal to all federal, state and local government web resources and services.